sensor_id;sensor_type;location;lat;lon;timestamp;temperature;humidity
3948;DHT22;1988;48.694;9.562;2022-07-09T00:00:43;22.00;99.90
3948;DHT22;1988;48.694;9.562;2022-07-09T00:03:08;22.00;99.90
3948;DHT22;1988;48.694;9.562;2022-07-09T00:05:34;22.00;99.90
3948;DHT22;1988;48.694;9.562;2022-07-09T00:07:59;22.00;99.90
3948;DHT22;1988;48.694;9.562;2022-07-09T00:10:25;21.90;99.90
3948;DHT22;1988;48.694;9.562;2022-07-09T00:12:50;21.90;99.90
3948;DHT22;1988;48.694;9.562;2022-07-09T00:15:16;21.90;99.90
3948;DHT22;1988;48.694;9.562;2022-07-09T00:17:42;21.90;99.90
3948;DHT22;1988;48.694;9.562;2022-07-09T00:20:07;21.90;99.90
3948;DHT22;1988;48.694;9.562;2022-07-09T00:22:33;21.90;99.90
3948;DHT22;1988;48.694;9.562;2022-07-09T00:24:59;21.80;99.90
3948;DHT22;1988;48.694;9.562;2022-07-09T00:27:25;21.80;99.90
3948;DHT22;1988;48.694;9.562;2022-07-09T00:29:50;21.80;99.90
3948;DHT22;1988;48.694;9.562;2022-07-09T00:32:16;21.80;99.90
3948;DHT22;1988;48.694;9.562;2022-07-09T00:34:42;21.80;99.90
3948;DHT22;1988;48.694;9.562;2022-07-09T00:37:07;21.80;99.90
3948;DHT22;1988;48.694;9.562;2022-07-09T00:39:33;21.80;99.90
3948;DHT22;1988;48.694;9.562;2022-07-09T00:42:17;21.80;99.90
3948;DHT22;1988;48.694;9.562;2022-07-09T00:44:42;21.80;99.90
3948;DHT22;1988;48.694;9.562;2022-07-09T00:47:08;21.80;99.90
3948;DHT22;1988;48.694;9.562;2022-07-09T00:49:40;21.80;99.90
3948;DHT22;1988;48.694;9.562;2022-07-09T00:52:06;21.80;99.90
3948;DHT22;1988;48.694;9.562;2022-07-09T00:54:32;21.70;99.90
3948;DHT22;1988;48.694;9.562;2022-07-09T00:56:59;21.70;99.90
3948;DHT22;1988;48.694;9.562;2022-07-09T00:59:25;21.80;99.90
3948;DHT22;1988;48.694;9.562;2022-07-09T01:01:50;21.70;99.90
3948;DHT22;1988;48.694;9.562;2022-07-09T01:04:16;21.70;99.90
3948;DHT22;1988;48.694;9.562;2022-07-09T01:06:42;21.70;99.90
3948;DHT22;1988;48.694;9.562;2022-07-09T01:09:07;21.70;99.90
3948;DHT22;1988;48.694;9.562;2022-07-09T01:11:34;21.70;99.90
3948;DHT22;1988;48.694;9.562;2022-07-09T01:13:59;21.70;99.90
3948;DHT22;1988;48.694;9.562;2022-07-09T01:16:31;21.70;99.90
3948;DHT22;1988;48.694;9.562;2022-07-09T01:18:57;21.70;99.90
3948;DHT22;1988;48.694;9.562;2022-07-09T01:21:23;21.70;99.90
3948;DHT22;1988;48.694;9.562;2022-07-09T01:23:48;21.70;99.90
3948;DHT22;1988;48.694;9.562;2022-07-09T01:26:14;21.70;99.90
3948;DHT22;1988;48.694;9.562;2022-07-09T01:28:40;21.70;99.90
3948;DHT22;1988;48.694;9.562;2022-07-09T01:31:05;21.70;99.90
3948;DHT22;1988;48.694;9.562;2022-07-09T01:33:31;21.60;99.90
3948;DHT22;1988;48.694;9.562;2022-07-09T01:35:58;21.60;99.90
3948;DHT22;1988;48.694;9.562;2022-07-09T01:38:24;21.60;99.90
3948;DHT22;1988;48.694;9.562;2022-07-09T01:40:49;21.60;99.90
3948;DHT22;1988;48.694;9.562;2022-07-09T01:43:15;21.60;99.90
3948;DHT22;1988;48.694;9.562;2022-07-09T01:45:40;21.60;99.90
3948;DHT22;1988;48.694;9.562;2022-07-09T01:48:06;21.60;99.90
3948;DHT22;1988;48.694;9.562;2022-07-09T01:50:31;21.60;99.90
3948;DHT22;1988;48.694;9.562;2022-07-09T01:52:57;21.50;99.90
3948;DHT22;1988;48.694;9.562;2022-07-09T01:55:22;21.50;99.90
3948;DHT22;1988;48.694;9.562;2022-07-09T01:57:48;21.50;99.90
3948;DHT22;1988;48.694;9.562;2022-07-09T02:00:13;21.50;99.90
3948;DHT22;1988;48.694;9.562;2022-07-09T02:02:39;21.50;99.90
3948;DHT22;1988;48.694;9.562;2022-07-09T02:05:04;21.50;99.90
3948;DHT22;1988;48.694;9.562;2022-07-09T02:07:30;21.50;99.90
3948;DHT22;1988;48.694;9.562;2022-07-09T02:09:56;21.50;99.90
3948;DHT22;1988;48.694;9.562;2022-07-09T02:12:21;21.50;99.90
3948;DHT22;1988;48.694;9.562;2022-07-09T02:14:47;21.50;99.90
3948;DHT22;1988;48.694;9.562;2022-07-09T02:17:13;21.40;99.90
3948;DHT22;1988;48.694;9.562;2022-07-09T02:19:38;21.40;99.90
3948;DHT22;1988;48.694;9.562;2022-07-09T02:22:04;21.40;99.90
3948;DHT22;1988;48.694;9.562;2022-07-09T02:24:29;21.40;99.90
3948;DHT22;1988;48.694;9.562;2022-07-09T02:26:55;21.40;99.90
3948;DHT22;1988;48.694;9.562;2022-07-09T02:29:20;21.30;99.90
3948;DHT22;1988;48.694;9.562;2022-07-09T02:31:46;21.30;99.90
3948;DHT22;1988;48.694;9.562;2022-07-09T02:34:11;21.30;99.90
3948;DHT22;1988;48.694;9.562;2022-07-09T02:36:37;21.30;99.90
3948;DHT22;1988;48.694;9.562;2022-07-09T02:39:02;21.30;99.90
3948;DHT22;1988;48.694;9.562;2022-07-09T02:41:28;21.30;99.90
3948;DHT22;1988;48.694;9.562;2022-07-09T02:43:53;21.30;99.90
3948;DHT22;1988;48.694;9.562;2022-07-09T02:46:19;21.20;99.90
3948;DHT22;1988;48.694;9.562;2022-07-09T02:48:44;21.20;99.90
3948;DHT22;1988;48.694;9.562;2022-07-09T02:51:10;21.20;99.90
3948;DHT22;1988;48.694;9.562;2022-07-09T02:53:35;21.20;99.90
3948;DHT22;1988;48.694;9.562;2022-07-09T02:56:01;21.20;99.90
3948;DHT22;1988;48.694;9.562;2022-07-09T02:58:27;21.20;99.90
3948;DHT22;1988;48.694;9.562;2022-07-09T03:00:53;21.20;99.90
3948;DHT22;1988;48.694;9.562;2022-07-09T03:03:18;21.20;99.90
3948;DHT22;1988;48.694;9.562;2022-07-09T03:05:44;21.20;99.90
3948;DHT22;1988;48.694;9.562;2022-07-09T03:08:09;21.20;99.90
3948;DHT22;1988;48.694;9.562;2022-07-09T03:10:35;21.20;99.90
3948;DHT22;1988;48.694;9.562;2022-07-09T03:13:01;21.20;99.90
3948;DHT22;1988;48.694;9.562;2022-07-09T03:15:26;21.20;99.90
3948;DHT22;1988;48.694;9.562;2022-07-09T03:17:52;21.20;99.90
3948;DHT22;1988;48.694;9.562;2022-07-09T03:20:17;21.30;99.90
3948;DHT22;1988;48.694;9.562;2022-07-09T03:22:43;21.30;99.90
3948;DHT22;1988;48.694;9.562;2022-07-09T03:25:08;21.30;99.90
3948;DHT22;1988;48.694;9.562;2022-07-09T03:27:34;21.40;99.90
3948;DHT22;1988;48.694;9.562;2022-07-09T03:30:00;21.40;99.90
3948;DHT22;1988;48.694;9.562;2022-07-09T03:32:26;21.40;99.90
3948;DHT22;1988;48.694;9.562;2022-07-09T03:34:52;21.40;99.90
3948;DHT22;1988;48.694;9.562;2022-07-09T03:37:18;21.40;99.90
3948;DHT22;1988;48.694;9.562;2022-07-09T03:39:43;21.40;99.90
3948;DHT22;1988;48.694;9.562;2022-07-09T03:42:10;21.50;99.90
3948;DHT22;1988;48.694;9.562;2022-07-09T03:44:36;21.50;99.90
3948;DHT22;1988;48.694;9.562;2022-07-09T03:47:01;21.50;99.90
3948;DHT22;1988;48.694;9.562;2022-07-09T03:49:27;21.50;99.90
3948;DHT22;1988;48.694;9.562;2022-07-09T03:51:53;21.50;99.90
3948;DHT22;1988;48.694;9.562;2022-07-09T03:54:18;21.50;99.90
3948;DHT22;1988;48.694;9.562;2022-07-09T03:56:44;21.50;99.90
3948;DHT22;1988;48.694;9.562;2022-07-09T03:59:10;21.50;99.90
3948;DHT22;1988;48.694;9.562;2022-07-09T04:01:35;21.50;99.90
3948;DHT22;1988;48.694;9.562;2022-07-09T04:04:01;21.50;99.90
3948;DHT22;1988;48.694;9.562;2022-07-09T04:06:26;21.50;99.90
3948;DHT22;1988;48.694;9.562;2022-07-09T04:08:52;21.50;99.90
3948;DHT22;1988;48.694;9.562;2022-07-09T04:11:17;21.60;99.90
3948;DHT22;1988;48.694;9.562;2022-07-09T04:13:43;21.70;99.90
3948;DHT22;1988;48.694;9.562;2022-07-09T04:16:08;21.80;99.90
3948;DHT22;1988;48.694;9.562;2022-07-09T04:18:34;22.00;99.90
3948;DHT22;1988;48.694;9.562;2022-07-09T04:21:00;22.20;99.90
3948;DHT22;1988;48.694;9.562;2022-07-09T04:23:26;22.40;99.90
3948;DHT22;1988;48.694;9.562;2022-07-09T04:25:52;22.60;99.90
3948;DHT22;1988;48.694;9.562;2022-07-09T04:28:18;22.80;99.90
3948;DHT22;1988;48.694;9.562;2022-07-09T04:30:46;22.90;99.90
3948;DHT22;1988;48.694;9.562;2022-07-09T04:33:12;23.10;99.90
3948;DHT22;1988;48.694;9.562;2022-07-09T04:35:38;23.20;99.90
3948;DHT22;1988;48.694;9.562;2022-07-09T04:38:03;23.30;99.90
3948;DHT22;1988;48.694;9.562;2022-07-09T04:40:29;23.40;99.90
3948;DHT22;1988;48.694;9.562;2022-07-09T04:42:55;23.50;99.90
3948;DHT22;1988;48.694;9.562;2022-07-09T04:45:20;23.50;99.90
3948;DHT22;1988;48.694;9.562;2022-07-09T04:47:46;23.60;99.90
3948;DHT22;1988;48.694;9.562;2022-07-09T04:50:11;23.60;99.90
3948;DHT22;1988;48.694;9.562;2022-07-09T04:52:37;23.70;99.90
3948;DHT22;1988;48.694;9.562;2022-07-09T04:55:03;23.70;99.90
3948;DHT22;1988;48.694;9.562;2022-07-09T04:57:29;23.70;99.90
3948;DHT22;1988;48.694;9.562;2022-07-09T05:00:01;23.70;99.90
3948;DHT22;1988;48.694;9.562;2022-07-09T05:02:27;23.70;99.90
3948;DHT22;1988;48.694;9.562;2022-07-09T05:04:52;23.70;99.60
3948;DHT22;1988;48.694;9.562;2022-07-09T05:07:18;23.70;99.40
3948;DHT22;1988;48.694;9.562;2022-07-09T05:09:43;23.70;99.10
3948;DHT22;1988;48.694;9.562;2022-07-09T05:12:09;23.60;99.10
3948;DHT22;1988;48.694;9.562;2022-07-09T05:14:38;23.60;99.10
3948;DHT22;1988;48.694;9.562;2022-07-09T05:17:04;23.60;99.20
3948;DHT22;1988;48.694;9.562;2022-07-09T05:19:30;23.60;99.40
3948;DHT22;1988;48.694;9.562;2022-07-09T05:21:55;23.60;99.50
3948;DHT22;1988;48.694;9.562;2022-07-09T05:24:21;23.50;99.50
3948;DHT22;1988;48.694;9.562;2022-07-09T05:26:47;23.50;99.60
3948;DHT22;1988;48.694;9.562;2022-07-09T05:29:13;23.50;99.70
3948;DHT22;1988;48.694;9.562;2022-07-09T05:31:38;23.40;99.70
3948;DHT22;1988;48.694;9.562;2022-07-09T05:34:04;23.40;99.80
3948;DHT22;1988;48.694;9.562;2022-07-09T05:36:31;23.30;99.80
3948;DHT22;1988;48.694;9.562;2022-07-09T05:38:56;23.30;99.90
3948;DHT22;1988;48.694;9.562;2022-07-09T05:41:22;23.30;99.90
3948;DHT22;1988;48.694;9.562;2022-07-09T05:43:48;23.20;99.90
3948;DHT22;1988;48.694;9.562;2022-07-09T05:46:13;23.20;99.90
3948;DHT22;1988;48.694;9.562;2022-07-09T05:48:39;23.10;99.90
3948;DHT22;1988;48.694;9.562;2022-07-09T05:51:04;23.10;99.90
3948;DHT22;1988;48.694;9.562;2022-07-09T05:53:30;23.00;99.90
3948;DHT22;1988;48.694;9.562;2022-07-09T05:55:56;23.00;99.90
3948;DHT22;1988;48.694;9.562;2022-07-09T05:58:21;23.00;99.90
3948;DHT22;1988;48.694;9.562;2022-07-09T06:00:47;23.00;99.90
3948;DHT22;1988;48.694;9.562;2022-07-09T06:03:12;23.00;99.90
3948;DHT22;1988;48.694;9.562;2022-07-09T06:05:38;22.90;99.90
3948;DHT22;1988;48.694;9.562;2022-07-09T06:08:04;22.90;99.90
3948;DHT22;1988;48.694;9.562;2022-07-09T06:10:29;22.90;99.90
3948;DHT22;1988;48.694;9.562;2022-07-09T06:12:55;22.90;99.90
3948;DHT22;1988;48.694;9.562;2022-07-09T06:15:21;22.80;99.90
3948;DHT22;1988;48.694;9.562;2022-07-09T06:17:46;22.90;99.90
3948;DHT22;1988;48.694;9.562;2022-07-09T06:20:15;22.80;99.90
3948;DHT22;1988;48.694;9.562;2022-07-09T06:22:41;22.80;99.90
3948;DHT22;1988;48.694;9.562;2022-07-09T06:25:07;22.70;99.90
3948;DHT22;1988;48.694;9.562;2022-07-09T06:27:34;22.70;99.90
3948;DHT22;1988;48.694;9.562;2022-07-09T06:30:00;22.60;99.90
3948;DHT22;1988;48.694;9.562;2022-07-09T06:32:25;22.60;99.90
3948;DHT22;1988;48.694;9.562;2022-07-09T06:34:51;22.60;99.90
3948;DHT22;1988;48.694;9.562;2022-07-09T06:37:16;22.60;99.90
3948;DHT22;1988;48.694;9.562;2022-07-09T06:39:42;22.60;99.90
3948;DHT22;1988;48.694;9.562;2022-07-09T06:42:11;22.60;99.90
3948;DHT22;1988;48.694;9.562;2022-07-09T06:44:36;22.60;99.90
3948;DHT22;1988;48.694;9.562;2022-07-09T06:47:03;22.60;99.90
3948;DHT22;1988;48.694;9.562;2022-07-09T06:49:29;22.60;99.90
3948;DHT22;1988;48.694;9.562;2022-07-09T06:51:54;22.60;99.90
3948;DHT22;1988;48.694;9.562;2022-07-09T06:54:20;22.60;99.90
3948;DHT22;1988;48.694;9.562;2022-07-09T06:56:45;22.60;99.90
3948;DHT22;1988;48.694;9.562;2022-07-09T06:59:11;22.60;99.90
3948;DHT22;1988;48.694;9.562;2022-07-09T07:01:37;22.60;99.90
3948;DHT22;1988;48.694;9.562;2022-07-09T07:04:02;22.60;99.90
3948;DHT22;1988;48.694;9.562;2022-07-09T07:06:28;22.60;99.90
3948;DHT22;1988;48.694;9.562;2022-07-09T07:08:53;22.60;99.00
3948;DHT22;1988;48.694;9.562;2022-07-09T07:11:19;22.50;98.50
3948;DHT22;1988;48.694;9.562;2022-07-09T07:13:44;22.40;98.70
3948;DHT22;1988;48.694;9.562;2022-07-09T07:16:10;22.30;99.20
3948;DHT22;1988;48.694;9.562;2022-07-09T07:18:35;22.30;99.40
3948;DHT22;1988;48.694;9.562;2022-07-09T07:21:01;22.30;99.10
3948;DHT22;1988;48.694;9.562;2022-07-09T07:23:26;22.30;99.00
3948;DHT22;1988;48.694;9.562;2022-07-09T07:25:52;22.20;98.70
3948;DHT22;1988;48.694;9.562;2022-07-09T07:28:17;22.20;99.00
3948;DHT22;1988;48.694;9.562;2022-07-09T07:30:43;22.10;99.20
3948;DHT22;1988;48.694;9.562;2022-07-09T07:33:08;22.10;99.20
3948;DHT22;1988;48.694;9.562;2022-07-09T07:35:34;22.10;98.90
3948;DHT22;1988;48.694;9.562;2022-07-09T07:38:00;22.10;98.60
3948;DHT22;1988;48.694;9.562;2022-07-09T07:40:25;22.10;98.70
3948;DHT22;1988;48.694;9.562;2022-07-09T07:42:51;22.10;98.40
3948;DHT22;1988;48.694;9.562;2022-07-09T07:45:16;22.00;98.30
3948;DHT22;1988;48.694;9.562;2022-07-09T07:47:42;22.00;98.40
3948;DHT22;1988;48.694;9.562;2022-07-09T07:50:07;21.90;98.70
3948;DHT22;1988;48.694;9.562;2022-07-09T07:52:33;22.00;99.20
3948;DHT22;1988;48.694;9.562;2022-07-09T07:54:58;22.00;99.00
3948;DHT22;1988;48.694;9.562;2022-07-09T07:57:24;22.00;98.60
3948;DHT22;1988;48.694;9.562;2022-07-09T07:59:49;22.00;98.70
3948;DHT22;1988;48.694;9.562;2022-07-09T08:02:15;22.00;98.70
3948;DHT22;1988;48.694;9.562;2022-07-09T08:04:40;22.10;99.20
3948;DHT22;1988;48.694;9.562;2022-07-09T08:07:06;22.10;99.20
3948;DHT22;1988;48.694;9.562;2022-07-09T08:09:32;22.10;98.80
3948;DHT22;1988;48.694;9.562;2022-07-09T08:11:59;22.10;98.60
3948;DHT22;1988;48.694;9.562;2022-07-09T08:14:25;22.10;98.50
3948;DHT22;1988;48.694;9.562;2022-07-09T08:16:50;22.10;98.30
3948;DHT22;1988;48.694;9.562;2022-07-09T08:19:16;22.10;98.00
3948;DHT22;1988;48.694;9.562;2022-07-09T08:21:41;22.10;97.90
3948;DHT22;1988;48.694;9.562;2022-07-09T08:24:07;22.10;98.00
3948;DHT22;1988;48.694;9.562;2022-07-09T08:26:33;22.10;98.20
3948;DHT22;1988;48.694;9.562;2022-07-09T08:28:58;22.10;98.30
3948;DHT22;1988;48.694;9.562;2022-07-09T08:31:24;22.10;98.50
3948;DHT22;1988;48.694;9.562;2022-07-09T08:33:49;22.10;98.60
3948;DHT22;1988;48.694;9.562;2022-07-09T08:36:16;22.20;99.10
3948;DHT22;1988;48.694;9.562;2022-07-09T08:38:41;22.20;98.80
3948;DHT22;1988;48.694;9.562;2022-07-09T08:41:07;22.20;98.90
3948;DHT22;1988;48.694;9.562;2022-07-09T08:43:33;22.30;99.10
3948;DHT22;1988;48.694;9.562;2022-07-09T08:45:59;22.30;99.20
3948;DHT22;1988;48.694;9.562;2022-07-09T08:48:25;22.40;99.20
3948;DHT22;1988;48.694;9.562;2022-07-09T08:50:51;22.40;99.00
3948;DHT22;1988;48.694;9.562;2022-07-09T08:53:17;22.40;98.90
3948;DHT22;1988;48.694;9.562;2022-07-09T08:55:44;22.40;98.90
3948;DHT22;1988;48.694;9.562;2022-07-09T08:58:10;22.40;98.90
3948;DHT22;1988;48.694;9.562;2022-07-09T09:00:37;22.40;99.10
3948;DHT22;1988;48.694;9.562;2022-07-09T09:03:02;22.50;99.30
3948;DHT22;1988;48.694;9.562;2022-07-09T09:05:28;22.50;99.40
3948;DHT22;1988;48.694;9.562;2022-07-09T09:07:53;22.50;99.40
3948;DHT22;1988;48.694;9.562;2022-07-09T09:10:23;22.60;99.30
3948;DHT22;1988;48.694;9.562;2022-07-09T09:12:49;22.60;99.30
3948;DHT22;1988;48.694;9.562;2022-07-09T09:15:17;22.60;99.10
3948;DHT22;1988;48.694;9.562;2022-07-09T09:17:44;22.60;99.20
3948;DHT22;1988;48.694;9.562;2022-07-09T09:20:13;22.70;99.20
3948;DHT22;1988;48.694;9.562;2022-07-09T09:25:18;22.70;99.00
3948;DHT22;1988;48.694;9.562;2022-07-09T09:27:53;22.70;99.00
3948;DHT22;1988;48.694;9.562;2022-07-09T09:30:19;22.80;98.90
3948;DHT22;1988;48.694;9.562;2022-07-09T09:32:44;22.80;98.80
3948;DHT22;1988;48.694;9.562;2022-07-09T09:35:10;22.80;98.80
3948;DHT22;1988;48.694;9.562;2022-07-09T09:37:35;22.80;98.80
3948;DHT22;1988;48.694;9.562;2022-07-09T09:40:10;22.90;98.70
3948;DHT22;1988;48.694;9.562;2022-07-09T09:42:39;22.90;99.00
3948;DHT22;1988;48.694;9.562;2022-07-09T09:45:05;22.90;98.70
3948;DHT22;1988;48.694;9.562;2022-07-09T09:47:31;22.90;98.70
3948;DHT22;1988;48.694;9.562;2022-07-09T09:49:58;22.90;98.70
3948;DHT22;1988;48.694;9.562;2022-07-09T09:52:25;22.90;98.70
3948;DHT22;1988;48.694;9.562;2022-07-09T09:54:51;23.00;98.70
3948;DHT22;1988;48.694;9.562;2022-07-09T09:57:17;23.00;98.50
3948;DHT22;1988;48.694;9.562;2022-07-09T09:59:43;23.00;98.60
3948;DHT22;1988;48.694;9.562;2022-07-09T10:02:12;23.10;98.80
3948;DHT22;1988;48.694;9.562;2022-07-09T10:04:42;23.10;99.00
3948;DHT22;1988;48.694;9.562;2022-07-09T10:07:08;23.10;99.00
3948;DHT22;1988;48.694;9.562;2022-07-09T10:09:35;23.10;99.10
3948;DHT22;1988;48.694;9.562;2022-07-09T10:12:01;23.10;98.90
3948;DHT22;1988;48.694;9.562;2022-07-09T10:16:52;23.20;98.70
3948;DHT22;1988;48.694;9.562;2022-07-09T10:19:24;23.20;98.50
3948;DHT22;1988;48.694;9.562;2022-07-09T10:21:51;23.30;98.30
3948;DHT22;1988;48.694;9.562;2022-07-09T10:24:22;23.30;98.20
3948;DHT22;1988;48.694;9.562;2022-07-09T10:26:48;23.30;97.70
3948;DHT22;1988;48.694;9.562;2022-07-09T10:29:17;23.30;97.40
3948;DHT22;1988;48.694;9.562;2022-07-09T10:31:43;23.30;97.40
3948;DHT22;1988;48.694;9.562;2022-07-09T10:34:08;23.40;97.50
3948;DHT22;1988;48.694;9.562;2022-07-09T10:36:39;23.40;97.50
3948;DHT22;1988;48.694;9.562;2022-07-09T10:39:11;23.40;97.30
3948;DHT22;1988;48.694;9.562;2022-07-09T10:41:37;23.40;97.30
3948;DHT22;1988;48.694;9.562;2022-07-09T10:44:02;23.40;97.70
3948;DHT22;1988;48.694;9.562;2022-07-09T10:46:28;23.50;99.20
3948;DHT22;1988;48.694;9.562;2022-07-09T10:48:53;23.50;99.90
3948;DHT22;1988;48.694;9.562;2022-07-09T10:51:23;23.50;99.90
3948;DHT22;1988;48.694;9.562;2022-07-09T10:53:49;23.50;99.90
3948;DHT22;1988;48.694;9.562;2022-07-09T10:56:18;23.50;99.90
3948;DHT22;1988;48.694;9.562;2022-07-09T10:58:47;23.40;99.90
3948;DHT22;1988;48.694;9.562;2022-07-09T11:01:18;23.40;99.90
3948;DHT22;1988;48.694;9.562;2022-07-09T11:03:46;23.40;99.90
3948;DHT22;1988;48.694;9.562;2022-07-09T11:06:13;23.40;99.90
3948;DHT22;1988;48.694;9.562;2022-07-09T11:08:38;23.40;99.90
3948;DHT22;1988;48.694;9.562;2022-07-09T11:11:04;23.40;99.90
3948;DHT22;1988;48.694;9.562;2022-07-09T11:13:29;23.30;99.90
3948;DHT22;1988;48.694;9.562;2022-07-09T11:15:58;23.40;99.90
3948;DHT22;1988;48.694;9.562;2022-07-09T11:18:26;23.30;99.90
3948;DHT22;1988;48.694;9.562;2022-07-09T11:20:52;23.30;99.90
3948;DHT22;1988;48.694;9.562;2022-07-09T11:23:17;23.30;99.80
3948;DHT22;1988;48.694;9.562;2022-07-09T11:25:43;23.40;99.80
3948;DHT22;1988;48.694;9.562;2022-07-09T11:28:17;23.40;99.80
3948;DHT22;1988;48.694;9.562;2022-07-09T11:30:43;23.40;99.90
3948;DHT22;1988;48.694;9.562;2022-07-09T11:33:11;23.40;99.90
3948;DHT22;1988;48.694;9.562;2022-07-09T11:35:37;23.40;99.90
3948;DHT22;1988;48.694;9.562;2022-07-09T11:38:03;23.40;99.90
3948;DHT22;1988;48.694;9.562;2022-07-09T11:40:29;23.40;99.90
3948;DHT22;1988;48.694;9.562;2022-07-09T11:42:54;23.40;99.90
3948;DHT22;1988;48.694;9.562;2022-07-09T11:45:21;23.40;99.90
3948;DHT22;1988;48.694;9.562;2022-07-09T11:47:47;23.50;99.90
3948;DHT22;1988;48.694;9.562;2022-07-09T11:50:13;23.50;99.90
3948;DHT22;1988;48.694;9.562;2022-07-09T11:52:43;23.50;99.90
3948;DHT22;1988;48.694;9.562;2022-07-09T11:55:10;23.50;99.90
3948;DHT22;1988;48.694;9.562;2022-07-09T11:57:36;23.50;99.90
3948;DHT22;1988;48.694;9.562;2022-07-09T12:00:06;23.50;99.90
3948;DHT22;1988;48.694;9.562;2022-07-09T12:02:33;23.50;99.90
3948;DHT22;1988;48.694;9.562;2022-07-09T12:04:59;23.50;99.90
3948;DHT22;1988;48.694;9.562;2022-07-09T12:07:25;23.50;99.90
3948;DHT22;1988;48.694;9.562;2022-07-09T12:09:57;23.50;99.90
3948;DHT22;1988;48.694;9.562;2022-07-09T12:12:24;23.50;99.90
3948;DHT22;1988;48.694;9.562;2022-07-09T12:14:49;23.60;99.90
3948;DHT22;1988;48.694;9.562;2022-07-09T12:17:24;23.60;99.90
3948;DHT22;1988;48.694;9.562;2022-07-09T12:19:50;23.70;99.90
3948;DHT22;1988;48.694;9.562;2022-07-09T12:22:16;23.70;99.60
3948;DHT22;1988;48.694;9.562;2022-07-09T12:24:42;23.70;99.40
3948;DHT22;1988;48.694;9.562;2022-07-09T12:27:08;23.80;99.50
3948;DHT22;1988;48.694;9.562;2022-07-09T12:29:34;23.80;99.30
3948;DHT22;1988;48.694;9.562;2022-07-09T12:31:59;23.90;99.30
3948;DHT22;1988;48.694;9.562;2022-07-09T12:34:24;23.90;99.20
3948;DHT22;1988;48.694;9.562;2022-07-09T12:36:50;24.00;99.30
3948;DHT22;1988;48.694;9.562;2022-07-09T12:39:15;24.00;99.20
3948;DHT22;1988;48.694;9.562;2022-07-09T12:41:41;24.10;99.30
3948;DHT22;1988;48.694;9.562;2022-07-09T12:44:07;24.10;99.20
3948;DHT22;1988;48.694;9.562;2022-07-09T12:46:33;24.20;99.10
3948;DHT22;1988;48.694;9.562;2022-07-09T12:48:58;24.20;98.80
3948;DHT22;1988;48.694;9.562;2022-07-09T12:51:25;24.20;98.90
3948;DHT22;1988;48.694;9.562;2022-07-09T12:53:50;24.30;98.60
3948;DHT22;1988;48.694;9.562;2022-07-09T12:56:16;24.30;98.80
3948;DHT22;1988;48.694;9.562;2022-07-09T12:58:41;24.40;98.90
3948;DHT22;1988;48.694;9.562;2022-07-09T13:01:07;24.40;98.90
3948;DHT22;1988;48.694;9.562;2022-07-09T13:03:32;24.40;98.90
3948;DHT22;1988;48.694;9.562;2022-07-09T13:05:58;24.40;98.60
3948;DHT22;1988;48.694;9.562;2022-07-09T13:08:24;24.50;98.30
3948;DHT22;1988;48.694;9.562;2022-07-09T13:10:49;24.50;97.50
3948;DHT22;1988;48.694;9.562;2022-07-09T13:13:15;24.60;97.80
3948;DHT22;1988;48.694;9.562;2022-07-09T13:15:41;24.60;97.90
3948;DHT22;1988;48.694;9.562;2022-07-09T13:18:07;24.60;97.90
3948;DHT22;1988;48.694;9.562;2022-07-09T13:20:33;24.60;98.00
3948;DHT22;1988;48.694;9.562;2022-07-09T13:22:58;24.70;98.10
3948;DHT22;1988;48.694;9.562;2022-07-09T13:25:24;24.70;98.20
3948;DHT22;1988;48.694;9.562;2022-07-09T13:27:49;24.70;98.00
3948;DHT22;1988;48.694;9.562;2022-07-09T13:30:15;24.80;98.20
3948;DHT22;1988;48.694;9.562;2022-07-09T13:32:46;24.80;98.30
3948;DHT22;1988;48.694;9.562;2022-07-09T13:35:11;24.80;98.40
3948;DHT22;1988;48.694;9.562;2022-07-09T13:37:37;24.90;98.30
3948;DHT22;1988;48.694;9.562;2022-07-09T13:40:03;24.90;98.40
3948;DHT22;1988;48.694;9.562;2022-07-09T13:42:28;24.90;98.50
3948;DHT22;1988;48.694;9.562;2022-07-09T13:44:54;24.90;98.50
3948;DHT22;1988;48.694;9.562;2022-07-09T13:47:19;25.00;98.50
3948;DHT22;1988;48.694;9.562;2022-07-09T13:49:45;25.00;98.40
3948;DHT22;1988;48.694;9.562;2022-07-09T13:52:10;25.00;98.30
3948;DHT22;1988;48.694;9.562;2022-07-09T13:54:36;25.00;98.20
3948;DHT22;1988;48.694;9.562;2022-07-09T13:57:02;25.10;98.10
3948;DHT22;1988;48.694;9.562;2022-07-09T13:59:27;25.10;98.00
3948;DHT22;1988;48.694;9.562;2022-07-09T14:01:53;25.10;97.90
3948;DHT22;1988;48.694;9.562;2022-07-09T14:04:18;25.20;97.80
3948;DHT22;1988;48.694;9.562;2022-07-09T14:06:44;25.20;97.70
3948;DHT22;1988;48.694;9.562;2022-07-09T14:09:10;25.20;97.80
3948;DHT22;1988;48.694;9.562;2022-07-09T14:11:35;25.20;97.70
3948;DHT22;1988;48.694;9.562;2022-07-09T14:14:01;25.20;97.70
3948;DHT22;1988;48.694;9.562;2022-07-09T14:16:26;25.30;97.70
3948;DHT22;1988;48.694;9.562;2022-07-09T14:18:52;25.30;97.70
3948;DHT22;1988;48.694;9.562;2022-07-09T14:21:17;25.30;97.70
3948;DHT22;1988;48.694;9.562;2022-07-09T14:23:43;25.40;97.70
3948;DHT22;1988;48.694;9.562;2022-07-09T14:26:16;25.40;97.50
3948;DHT22;1988;48.694;9.562;2022-07-09T14:28:42;25.40;97.50
3948;DHT22;1988;48.694;9.562;2022-07-09T14:31:07;25.40;97.40
3948;DHT22;1988;48.694;9.562;2022-07-09T14:33:32;25.40;97.50
3948;DHT22;1988;48.694;9.562;2022-07-09T14:35:58;25.50;97.50
3948;DHT22;1988;48.694;9.562;2022-07-09T14:38:23;25.50;97.40
3948;DHT22;1988;48.694;9.562;2022-07-09T14:40:49;25.50;97.30
3948;DHT22;1988;48.694;9.562;2022-07-09T14:43:14;25.50;97.40
3948;DHT22;1988;48.694;9.562;2022-07-09T14:45:40;25.50;97.40
3948;DHT22;1988;48.694;9.562;2022-07-09T14:48:05;25.50;97.40
3948;DHT22;1988;48.694;9.562;2022-07-09T14:50:34;25.50;97.30
3948;DHT22;1988;48.694;9.562;2022-07-09T14:53:00;25.60;97.30
3948;DHT22;1988;48.694;9.562;2022-07-09T14:55:29;25.60;97.30
3948;DHT22;1988;48.694;9.562;2022-07-09T14:57:55;25.60;97.20
3948;DHT22;1988;48.694;9.562;2022-07-09T15:00:20;25.60;97.10
3948;DHT22;1988;48.694;9.562;2022-07-09T15:02:46;25.60;97.00
3948;DHT22;1988;48.694;9.562;2022-07-09T15:05:11;25.60;97.10
3948;DHT22;1988;48.694;9.562;2022-07-09T15:07:37;25.60;97.10
3948;DHT22;1988;48.694;9.562;2022-07-09T15:10:06;25.70;97.10
3948;DHT22;1988;48.694;9.562;2022-07-09T15:12:31;25.70;97.10
3948;DHT22;1988;48.694;9.562;2022-07-09T15:14:57;25.70;97.00
3948;DHT22;1988;48.694;9.562;2022-07-09T15:17:23;25.70;97.00
3948;DHT22;1988;48.694;9.562;2022-07-09T15:19:48;25.80;96.90
3948;DHT22;1988;48.694;9.562;2022-07-09T15:22:13;25.80;96.70
3948;DHT22;1988;48.694;9.562;2022-07-09T15:24:40;25.80;96.50
3948;DHT22;1988;48.694;9.562;2022-07-09T15:27:06;25.80;96.40
3948;DHT22;1988;48.694;9.562;2022-07-09T15:29:32;25.90;96.40
3948;DHT22;1988;48.694;9.562;2022-07-09T15:31:57;25.90;96.30
3948;DHT22;1988;48.694;9.562;2022-07-09T15:34:23;25.90;96.20
3948;DHT22;1988;48.694;9.562;2022-07-09T15:36:48;25.90;96.20
3948;DHT22;1988;48.694;9.562;2022-07-09T15:39:14;25.90;96.20
3948;DHT22;1988;48.694;9.562;2022-07-09T15:41:39;25.90;96.20
3948;DHT22;1988;48.694;9.562;2022-07-09T15:44:05;25.90;96.10
3948;DHT22;1988;48.694;9.562;2022-07-09T15:46:34;25.90;96.00
3948;DHT22;1988;48.694;9.562;2022-07-09T15:48:59;26.00;96.00
3948;DHT22;1988;48.694;9.562;2022-07-09T15:51:25;26.00;96.10
3948;DHT22;1988;48.694;9.562;2022-07-09T15:53:50;26.00;96.20
3948;DHT22;1988;48.694;9.562;2022-07-09T15:56:16;26.00;96.10
3948;DHT22;1988;48.694;9.562;2022-07-09T15:58:45;26.00;96.10